createdAt,value
2023-04-07T00:00:52.358Z,13.06
2023-04-07T00:01:52.490Z,13.08
2023-04-07T00:02:52.593Z,13.11
2023-04-07T00:03:52.878Z,13.09
2023-04-07T00:04:52.714Z,13.13
2023-04-07T00:05:52.643Z,13.08
2023-04-07T00:06:52.646Z,13.09
2023-04-07T00:07:56.939Z,13.13
2023-04-07T00:08:52.657Z,13.08
2023-04-07T00:09:52.656Z,13.08
2023-04-07T00:10:52.617Z,13.13
2023-04-07T00:11:52.625Z,13.09
2023-04-07T00:12:52.618Z,13.06
2023-04-07T00:13:52.874Z,13.14
2023-04-07T00:14:52.631Z,13.13
2023-04-07T00:15:52.630Z,13.13
2023-04-07T00:16:52.594Z,13.13
2023-04-07T00:17:52.638Z,13.11
2023-04-07T00:18:52.585Z,13.16
2023-04-07T00:19:52.610Z,13.17
2023-04-07T00:20:52.571Z,13.17
2023-04-07T00:21:52.540Z,13.17
2023-04-07T00:22:52.541Z,13.16
2023-04-07T00:23:52.809Z,13.17
2023-04-07T00:24:52.534Z,13.17
2023-04-07T00:25:52.511Z,13.17
2023-04-07T00:26:52.520Z,13.17
2023-04-07T00:27:52.499Z,13.14
2023-04-07T00:28:52.513Z,13.16
2023-04-07T00:29:52.494Z,13.17
2023-04-07T00:30:52.500Z,13.19
2023-04-07T00:31:52.480Z,13.19
2023-04-07T00:32:52.489Z,13.19
2023-04-07T00:33:52.524Z,13.16
2023-04-07T00:34:52.469Z,13.17
2023-04-07T00:35:52.452Z,13.21
2023-04-07T00:36:52.474Z,13.21
2023-04-07T00:37:52.431Z,13.27
2023-04-07T00:38:52.406Z,13.24
2023-04-07T00:39:52.451Z,13.21
2023-04-07T00:40:52.545Z,13.22
2023-04-07T00:41:52.635Z,13.27
2023-04-07T00:42:52.748Z,13.27
2023-04-07T00:43:52.924Z,13.28
2023-04-07T00:44:52.927Z,13.27
2023-04-07T00:45:52.958Z,13.24
2023-04-07T00:46:52.984Z,13.24
2023-04-07T00:47:52.955Z,13.27
2023-04-07T00:48:52.965Z,13.27
2023-04-07T00:49:52.957Z,13.25
2023-04-07T00:50:53.091Z,13.30
2023-04-07T00:51:53.174Z,13.31
2023-04-07T00:52:53.267Z,13.27
2023-04-07T00:53:53.530Z,13.29
2023-04-07T00:54:53.265Z,13.28
2023-04-07T00:55:53.310Z,13.30
2023-04-07T00:56:53.280Z,13.31
2023-04-07T00:57:53.298Z,13.35
2023-04-07T00:58:53.309Z,13.31
2023-04-07T00:59:53.398Z,13.28
2023-04-07T01:00:53.409Z,13.30
2023-04-07T01:01:53.459Z,13.31
2023-04-07T01:02:53.575Z,13.27
2023-04-07T01:03:53.870Z,13.38
2023-04-07T01:04:53.629Z,13.33
2023-04-07T01:05:53.442Z,13.33
2023-04-07T01:06:53.477Z,13.33
2023-04-07T01:07:53.562Z,13.38
2023-04-07T01:08:53.665Z,13.41
2023-04-07T01:09:53.734Z,13.30
2023-04-07T01:10:53.749Z,13.35
2023-04-07T01:11:53.740Z,13.42
2023-04-07T01:12:53.762Z,13.39
2023-04-07T01:13:53.983Z,13.33
2023-04-07T01:14:53.820Z,13.31
2023-04-07T01:15:53.861Z,13.33
2023-04-07T01:16:55.201Z,13.42
2023-04-07T01:17:53.860Z,13.31
2023-04-07T01:18:53.871Z,13.41
2023-04-07T01:19:53.848Z,13.38
2023-04-07T01:20:53.869Z,13.38
2023-04-07T01:21:53.887Z,13.36
2023-04-07T01:22:53.977Z,13.36
2023-04-07T01:23:54.387Z,13.38
2023-04-07T01:24:54.080Z,13.42
2023-04-07T01:25:54.104Z,13.38
2023-04-07T01:26:54.109Z,13.36
2023-04-07T01:27:54.124Z,13.38
2023-04-07T01:28:54.117Z,13.41
2023-04-07T01:29:54.187Z,13.38
2023-04-07T01:30:54.183Z,13.38
2023-04-07T01:31:54.228Z,13.47
2023-04-07T01:32:54.238Z,13.46
2023-04-07T01:33:54.426Z,13.44
2023-04-07T01:34:54.203Z,13.38
2023-04-07T01:35:54.302Z,13.42
2023-04-07T01:36:54.321Z,13.39
2023-04-07T01:37:54.301Z,13.38
2023-04-07T01:38:54.301Z,13.42
2023-04-07T01:39:54.323Z,13.49
2023-04-07T01:40:54.339Z,13.47
2023-04-07T01:41:54.442Z,13.46
2023-04-07T01:42:54.533Z,13.44
2023-04-07T01:43:54.821Z,13.46
2023-04-07T01:44:54.525Z,13.44
2023-04-07T01:45:54.536Z,13.44
2023-04-07T01:46:54.585Z,13.47
2023-04-07T01:47:54.624Z,13.42
2023-04-07T01:48:54.576Z,13.46
2023-04-07T01:49:54.652Z,13.47
2023-04-07T01:50:54.654Z,13.44
2023-04-07T01:51:54.650Z,13.49
2023-04-07T01:52:54.666Z,13.47
2023-04-07T01:53:54.854Z,13.46
2023-04-07T01:54:54.678Z,13.47
2023-04-07T01:55:54.806Z,13.49
2023-04-07T01:56:54.743Z,13.46
2023-04-07T01:57:54.775Z,13.44
2023-04-07T01:58:54.779Z,13.46
2023-04-07T01:59:54.767Z,13.46
2023-04-07T02:00:54.796Z,13.49
2023-04-07T02:01:54.948Z,13.44
2023-04-07T02:02:55.056Z,13.50
2023-04-07T02:03:55.397Z,13.47
2023-04-07T02:04:55.077Z,13.50
2023-04-07T02:05:55.070Z,13.52
2023-04-07T02:06:55.117Z,13.50
2023-04-07T02:07:55.090Z,13.50
2023-04-07T02:08:55.079Z,13.52
2023-04-07T02:09:55.189Z,13.52
2023-04-07T02:10:55.289Z,13.52
2023-04-07T02:11:55.396Z,13.55
2023-04-07T02:12:55.404Z,13.52
2023-04-07T02:13:55.598Z,13.52
2023-04-07T02:14:55.400Z,13.58
2023-04-07T02:15:55.403Z,13.55
2023-04-07T02:16:55.483Z,13.55
2023-04-07T02:17:55.451Z,13.52
2023-04-07T02:18:55.456Z,13.52
2023-04-07T02:19:55.425Z,13.55
2023-04-07T02:20:55.504Z,13.55
2023-04-07T02:21:55.514Z,13.63
2023-04-07T02:22:55.513Z,13.61
2023-04-07T02:23:55.728Z,13.60
2023-04-07T02:24:55.582Z,13.58
2023-04-07T02:25:55.667Z,13.63
2023-04-07T02:26:55.778Z,13.63
2023-04-07T02:27:55.920Z,13.66
2023-04-07T02:28:55.973Z,13.61
2023-04-07T02:29:56.072Z,13.64
2023-04-07T02:30:56.103Z,13.63
2023-04-07T02:31:56.178Z,13.63
2023-04-07T02:32:56.142Z,13.60
2023-04-07T02:33:56.212Z,13.60
2023-04-07T02:34:56.125Z,13.61
2023-04-07T02:35:56.219Z,13.64
2023-04-07T02:36:56.342Z,13.63
2023-04-07T02:37:56.318Z,13.64
2023-04-07T02:38:56.353Z,13.64
2023-04-07T02:39:56.411Z,13.61
2023-04-07T02:40:56.362Z,13.61
2023-04-07T02:41:56.380Z,13.64
2023-04-07T02:42:56.418Z,13.58
2023-04-07T02:43:56.772Z,13.66
2023-04-07T02:44:56.556Z,13.61
2023-04-07T02:45:56.576Z,13.67
2023-04-07T02:46:56.558Z,13.66
2023-04-07T02:47:56.590Z,13.69
2023-04-07T02:48:56.579Z,13.71
2023-04-07T02:49:56.580Z,13.67
2023-04-07T02:50:56.591Z,13.63
2023-04-07T02:51:56.610Z,13.67
2023-04-07T02:52:56.600Z,13.71
2023-04-07T02:53:56.800Z,13.66
2023-04-07T02:54:56.627Z,13.69
2023-04-07T02:55:56.665Z,13.64
2023-04-07T02:56:56.654Z,13.71
2023-04-07T02:57:56.663Z,13.67
2023-04-07T02:58:56.645Z,13.69
2023-04-07T02:59:56.760Z,13.71
2023-04-07T03:00:56.874Z,13.74
2023-04-07T03:01:57.020Z,13.71
2023-04-07T03:02:56.991Z,13.71
2023-04-07T03:03:57.255Z,13.67
2023-04-07T03:04:56.915Z,13.74
2023-04-07T03:05:56.914Z,13.76
2023-04-07T03:06:56.904Z,13.72
2023-04-07T03:07:56.929Z,13.71
2023-04-07T03:08:56.924Z,13.72
2023-04-07T03:09:57.010Z,13.69
2023-04-07T03:10:57.044Z,13.71
2023-04-07T03:11:57.044Z,13.77
2023-04-07T03:12:57.032Z,13.74
2023-04-07T03:13:57.070Z,13.77
2023-04-07T03:14:57.054Z,13.74
2023-04-07T03:15:57.153Z,13.69
2023-04-07T03:16:57.291Z,13.78
2023-04-07T03:17:57.266Z,13.71
2023-04-07T03:18:57.248Z,13.72
2023-04-07T03:19:57.261Z,13.67
2023-04-07T03:20:57.313Z,13.72
2023-04-07T03:21:57.278Z,13.76
2023-04-07T03:22:57.379Z,13.71
2023-04-07T03:23:57.464Z,13.76
2023-04-07T03:24:57.590Z,13.72
2023-04-07T03:25:57.679Z,13.72
2023-04-07T03:26:57.792Z,13.77
2023-04-07T03:27:57.912Z,13.76
2023-04-07T03:28:57.995Z,13.72
2023-04-07T03:29:58.110Z,13.76
2023-04-07T03:30:58.238Z,13.80
2023-04-07T03:31:58.206Z,13.76
2023-04-07T03:32:58.265Z,13.76
2023-04-07T03:33:58.198Z,13.77
2023-04-07T03:34:58.218Z,13.76
2023-04-07T03:35:58.239Z,13.74
2023-04-07T03:36:58.310Z,13.76
2023-04-07T03:37:58.375Z,13.72
2023-04-07T03:38:58.413Z,13.78
2023-04-07T03:39:58.423Z,13.75
2023-04-07T03:40:58.411Z,13.74
2023-04-07T03:41:58.409Z,13.75
2023-04-07T03:42:58.490Z,13.76
2023-04-07T03:43:58.560Z,13.77
2023-04-07T03:44:58.521Z,13.80
2023-04-07T03:45:58.589Z,13.78
2023-04-07T03:46:58.563Z,13.77
2023-04-07T03:47:58.603Z,13.75
2023-04-07T03:48:58.646Z,13.77
2023-04-07T03:49:58.641Z,13.72
2023-04-07T03:50:58.661Z,13.80
2023-04-07T03:51:58.680Z,13.80
2023-04-07T03:52:58.694Z,13.77
2023-04-07T03:53:58.736Z,13.80
2023-04-07T03:54:58.722Z,13.85
2023-04-07T03:55:58.734Z,13.77
2023-04-07T03:56:58.743Z,13.78
2023-04-07T03:57:58.775Z,13.76
2023-04-07T03:58:58.804Z,13.86
2023-04-07T03:59:58.806Z,13.85
2023-04-07T04:00:58.820Z,13.85
2023-04-07T04:01:58.898Z,13.86
2023-04-07T04:02:58.978Z,13.82
2023-04-07T04:03:59.326Z,13.89
2023-04-07T04:04:58.938Z,13.83
2023-04-07T04:05:58.924Z,13.88
2023-04-07T04:06:58.961Z,13.85
2023-04-07T04:07:58.940Z,13.86
2023-04-07T04:08:58.986Z,13.86
2023-04-07T04:09:59.000Z,13.85
2023-04-07T04:10:59.031Z,13.86
2023-04-07T04:11:59.037Z,13.82
2023-04-07T04:12:59.053Z,13.89
2023-04-07T04:13:59.026Z,13.86
2023-04-07T04:14:59.150Z,13.94
2023-04-07T04:15:59.162Z,13.94
2023-04-07T04:16:59.161Z,13.91
2023-04-07T04:17:59.190Z,13.93
2023-04-07T04:18:59.182Z,13.93
2023-04-07T04:19:59.206Z,13.94
2023-04-07T04:20:59.215Z,13.93
2023-04-07T04:21:59.224Z,13.91
2023-04-07T04:22:59.262Z,13.94
2023-04-07T04:23:59.254Z,13.96
2023-04-07T04:24:59.278Z,13.89
2023-04-07T04:25:59.296Z,13.91
2023-04-07T04:26:59.336Z,13.96
2023-04-07T04:27:59.344Z,14.02
2023-04-07T04:28:59.340Z,13.96
2023-04-07T04:29:59.370Z,13.96
2023-04-07T04:30:59.497Z,13.96
2023-04-07T04:31:59.575Z,13.96
2023-04-07T04:32:59.588Z,13.99
2023-04-07T04:33:59.557Z,13.99
2023-04-07T04:34:59.564Z,13.99
2023-04-07T04:35:59.593Z,13.99
2023-04-07T04:36:59.659Z,14.00
2023-04-07T04:37:59.647Z,14.02
2023-04-07T04:38:59.646Z,14.01
2023-04-07T04:39:59.694Z,13.99
2023-04-07T04:40:59.685Z,14.02
2023-04-07T04:41:59.714Z,13.96
2023-04-07T04:42:59.723Z,13.99
2023-04-07T04:43:59.751Z,13.99
2023-04-07T04:44:59.736Z,14.04
2023-04-07T04:45:59.756Z,13.99
2023-04-07T04:46:59.824Z,14.02
2023-04-07T04:47:59.872Z,13.97
2023-04-07T04:48:59.820Z,13.97
2023-04-07T04:49:59.843Z,14.05
2023-04-07T04:50:59.858Z,13.99
2023-04-07T04:51:59.917Z,13.97
2023-04-07T04:52:59.933Z,14.04
2023-04-07T04:53:59.972Z,14.07
2023-04-07T04:54:59.956Z,14.02
2023-04-07T04:55:59.971Z,14.09
2023-04-07T04:56:59.960Z,13.97
2023-04-07T04:58:00.037Z,14.07
2023-04-07T04:59:00.040Z,14.04
2023-04-07T05:00:00.070Z,14.00
2023-04-07T05:01:00.151Z,14.05
2023-04-07T05:02:00.245Z,13.97
2023-04-07T05:03:00.331Z,14.05
2023-04-07T05:04:00.671Z,14.04
2023-04-07T05:05:00.323Z,14.02
2023-04-07T05:06:00.199Z,14.00
2023-04-07T05:07:00.210Z,14.04
2023-04-07T05:08:00.258Z,14.02
2023-04-07T05:09:00.257Z,14.05
2023-04-07T05:10:00.258Z,14.05
2023-04-07T05:11:00.284Z,14.04
2023-04-07T05:12:00.285Z,14.00
2023-04-07T05:13:00.330Z,14.02
2023-04-07T05:14:00.341Z,14.02
2023-04-07T05:15:00.364Z,14.04
2023-04-07T05:16:00.370Z,14.09
2023-04-07T05:17:00.388Z,14.05
2023-04-07T05:18:00.433Z,14.02
2023-04-07T05:19:00.404Z,14.07
2023-04-07T05:20:00.416Z,14.07
2023-04-07T05:21:00.423Z,14.01
2023-04-07T05:22:00.446Z,14.07
2023-04-07T05:23:00.464Z,14.02
2023-04-07T05:24:00.475Z,14.05
2023-04-07T05:25:00.501Z,14.09
2023-04-07T05:26:00.513Z,14.09
2023-04-07T05:27:00.544Z,14.10
2023-04-07T05:28:00.568Z,14.09
2023-04-07T05:29:00.632Z,14.05
2023-04-07T05:30:00.654Z,14.07
2023-04-07T05:31:00.685Z,14.00
2023-04-07T05:32:00.751Z,14.05
2023-04-07T05:33:00.797Z,14.09
2023-04-07T05:34:00.725Z,14.05
2023-04-07T05:35:00.816Z,14.12
2023-04-07T05:36:01.029Z,14.04
2023-04-07T05:37:01.004Z,14.09
2023-04-07T05:38:01.150Z,14.09
2023-04-07T05:39:01.162Z,14.09
2023-04-07T05:40:01.156Z,14.05
2023-04-07T05:41:01.190Z,14.11
2023-04-07T05:42:01.188Z,14.04
2023-04-07T05:43:01.214Z,14.09
2023-04-07T05:44:01.244Z,14.09
2023-04-07T05:45:01.278Z,14.10
2023-04-07T05:46:01.306Z,14.13
2023-04-07T05:47:01.256Z,14.10
2023-04-07T05:48:01.319Z,14.05
2023-04-07T05:49:18.331Z,14.07
2023-04-07T05:50:02.281Z,14.05
2023-04-07T05:51:01.282Z,14.11
2023-04-07T05:52:01.261Z,14.10
2023-04-07T05:53:01.266Z,14.13
2023-04-07T05:54:01.254Z,14.11
2023-04-07T05:55:01.241Z,14.07
2023-04-07T05:56:01.230Z,14.09
2023-04-07T05:57:01.231Z,14.10
2023-04-07T05:58:01.218Z,14.07
2023-04-07T05:59:01.217Z,14.09
2023-04-07T06:00:01.196Z,14.11
2023-04-07T06:01:01.188Z,14.07
2023-04-07T06:02:01.261Z,14.07
2023-04-07T06:03:01.331Z,14.11
2023-04-07T06:04:01.200Z,14.10
2023-04-07T06:05:01.239Z,14.12
2023-04-07T06:06:01.259Z,14.11
2023-04-07T06:07:01.257Z,14.09
2023-04-07T06:08:01.268Z,14.04
2023-04-07T06:09:01.307Z,14.07
2023-04-07T06:10:01.297Z,14.12
2023-04-07T06:11:01.355Z,14.11
2023-04-07T06:12:01.372Z,14.04
2023-04-07T06:13:01.370Z,14.10
2023-04-07T06:14:01.395Z,14.07
2023-04-07T06:15:01.390Z,14.09
2023-04-07T06:16:01.448Z,14.09
2023-04-07T06:17:01.535Z,14.10
2023-04-07T06:18:01.514Z,14.12
2023-04-07T06:19:01.501Z,14.07
2023-04-07T06:20:01.516Z,14.02
2023-04-07T06:21:01.565Z,14.07
2023-04-07T06:22:01.575Z,14.09
2023-04-07T06:23:01.598Z,14.07
2023-04-07T06:24:01.603Z,14.07
2023-04-07T06:25:01.642Z,14.05
2023-04-07T06:26:01.742Z,14.10
2023-04-07T06:27:01.727Z,14.07
2023-04-07T06:28:01.713Z,14.12
2023-04-07T06:29:01.729Z,14.07
2023-04-07T06:30:01.750Z,14.09
2023-04-07T06:31:01.785Z,14.05
2023-04-07T06:32:01.837Z,14.09
2023-04-07T06:33:01.988Z,14.07
2023-04-07T06:34:01.977Z,14.04
2023-04-07T06:35:01.987Z,14.12
2023-04-07T06:36:02.003Z,14.04
2023-04-07T06:37:02.013Z,14.09
2023-04-07T06:38:02.002Z,14.02
2023-04-07T06:39:02.008Z,14.12
2023-04-07T06:40:02.033Z,14.05
2023-04-07T06:41:02.058Z,14.05
2023-04-07T06:42:02.042Z,14.12
2023-04-07T06:43:02.075Z,14.03
2023-04-07T06:44:02.128Z,14.04
2023-04-07T06:45:02.175Z,14.04
2023-04-07T06:46:02.200Z,14.07
2023-04-07T06:47:02.163Z,14.03
2023-04-07T06:48:02.210Z,14.03
2023-04-07T06:49:02.181Z,14.09
2023-04-07T06:50:02.311Z,14.12
2023-04-07T06:51:02.257Z,14.04
2023-04-07T06:52:02.261Z,13.99
2023-04-07T06:53:02.286Z,14.04
2023-04-07T06:54:02.289Z,14.03
2023-04-07T06:55:02.329Z,14.06
2023-04-07T06:56:02.373Z,14.09
2023-04-07T06:57:02.462Z,14.06
2023-04-07T06:58:02.567Z,14.04
2023-04-07T06:59:02.641Z,14.06
2023-04-07T07:00:02.751Z,14.04
2023-04-07T07:01:02.866Z,14.10
2023-04-07T07:02:03.123Z,14.11
2023-04-07T07:03:03.103Z,14.01
2023-04-07T07:04:03.028Z,14.06
2023-04-07T07:05:02.991Z,14.01
2023-04-07T07:06:03.048Z,14.06
2023-04-07T07:07:03.037Z,14.01
2023-04-07T07:08:03.029Z,14.06
2023-04-07T07:09:03.059Z,14.01
2023-04-07T07:10:03.043Z,14.00
2023-04-07T07:11:03.111Z,14.06
2023-04-07T07:12:04.186Z,14.05
2023-04-07T07:13:03.197Z,14.03
2023-04-07T07:14:03.211Z,14.03
2023-04-07T07:15:03.202Z,14.05
2023-04-07T07:16:03.287Z,14.08
2023-04-07T07:17:03.196Z,14.04
2023-04-07T07:18:03.237Z,14.04
2023-04-07T07:19:03.213Z,14.00
2023-04-07T07:20:03.259Z,14.00
2023-04-07T07:21:03.271Z,14.02
2023-04-07T07:22:03.317Z,14.05
2023-04-07T07:23:03.305Z,14.00
2023-04-07T07:24:03.334Z,14.06
2023-04-07T07:25:03.340Z,14.08
2023-04-07T07:26:03.392Z,14.04
2023-04-07T07:27:03.419Z,14.07
2023-04-07T07:28:03.467Z,14.10
2023-04-07T07:29:03.507Z,14.11
2023-04-07T07:30:03.648Z,14.09
2023-04-07T07:31:03.641Z,14.07
2023-04-07T07:32:03.653Z,14.11
2023-04-07T07:33:03.883Z,14.07
2023-04-07T07:34:03.764Z,14.01
2023-04-07T07:35:03.835Z,14.08
2023-04-07T07:36:03.904Z,13.95
2023-04-07T07:37:03.943Z,13.99
2023-04-07T07:38:03.985Z,14.00
2023-04-07T07:39:04.023Z,13.99
2023-04-07T07:40:04.083Z,14.00
2023-04-07T07:41:04.120Z,13.97
2023-04-07T07:42:04.185Z,14.04
2023-04-07T07:43:04.215Z,14.00
2023-04-07T07:44:04.291Z,14.02
2023-04-07T07:45:04.334Z,14.03
2023-04-07T07:46:04.429Z,14.06
2023-04-07T07:47:04.446Z,14.05
2023-04-07T07:48:04.468Z,14.06
2023-04-07T07:49:04.534Z,14.11
2023-04-07T07:50:04.555Z,14.10
2023-04-07T07:51:04.629Z,14.08
2023-04-07T07:52:04.652Z,14.04
2023-04-07T07:53:04.770Z,14.07
2023-04-07T07:54:04.738Z,14.02
2023-04-07T07:55:04.799Z,14.05
2023-04-07T07:56:04.830Z,14.09
2023-04-07T07:57:04.920Z,14.01
2023-04-07T07:58:04.924Z,13.98
2023-04-07T07:59:04.981Z,14.03
2023-04-07T08:00:05.050Z,14.04
2023-04-07T08:01:05.061Z,14.04
2023-04-07T08:02:05.141Z,14.06
2023-04-07T08:03:05.256Z,14.08
2023-04-07T08:04:05.266Z,14.03
2023-04-07T08:05:05.299Z,13.95
2023-04-07T08:06:05.429Z,13.99
2023-04-07T08:07:05.284Z,13.93
2023-04-07T08:08:05.311Z,13.93
2023-04-07T08:09:05.332Z,13.98
2023-04-07T08:10:05.354Z,13.94
2023-04-07T08:11:05.387Z,13.93
2023-04-07T08:12:05.405Z,13.93
2023-04-07T08:13:05.430Z,13.92
2023-04-07T08:14:05.909Z,13.86
2023-04-07T08:15:05.456Z,13.81
2023-04-07T08:16:05.535Z,13.87
2023-04-07T08:17:05.496Z,13.86
2023-04-07T08:18:05.553Z,13.83
2023-04-07T08:19:05.534Z,13.85
2023-04-07T08:20:05.528Z,13.75
2023-04-07T08:21:05.539Z,13.78
2023-04-07T08:22:05.541Z,13.80
2023-04-07T08:23:05.563Z,13.87
2023-04-07T08:24:05.584Z,13.90
2023-04-07T08:25:05.611Z,13.97
2023-04-07T08:26:05.613Z,14.00
2023-04-07T08:27:05.652Z,13.95
2023-04-07T08:28:05.673Z,14.04
2023-04-07T08:29:05.726Z,14.04
2023-04-07T08:30:05.768Z,14.10
2023-04-07T08:31:05.798Z,14.07
2023-04-07T08:32:05.794Z,14.10
2023-04-07T08:33:05.886Z,14.12
2023-04-07T08:34:05.879Z,14.13
2023-04-07T08:35:05.898Z,14.16
2023-04-07T08:36:06.026Z,14.14
2023-04-07T08:37:05.982Z,14.16
2023-04-07T08:38:06.027Z,14.21
2023-04-07T08:39:06.029Z,14.21
2023-04-07T08:40:06.052Z,14.18
2023-04-07T08:41:06.108Z,14.17
2023-04-07T08:42:06.118Z,14.22
2023-04-07T08:43:06.171Z,14.27
2023-04-07T08:44:06.205Z,14.27
2023-04-07T08:45:06.240Z,14.21
2023-04-07T08:46:06.283Z,14.21
2023-04-07T08:47:06.389Z,14.21
2023-04-07T08:48:06.356Z,14.22
2023-04-07T08:49:06.374Z,14.25
2023-04-07T08:50:06.399Z,14.22
2023-04-07T08:51:06.437Z,14.25
2023-04-07T08:52:07.935Z,14.21
2023-04-07T08:53:07.375Z,14.28
2023-04-07T08:54:06.458Z,14.25
2023-04-07T08:55:06.458Z,14.22
2023-04-07T08:56:06.445Z,14.27
2023-04-07T08:57:06.421Z,14.25
2023-04-07T08:58:06.426Z,14.28
2023-04-07T08:59:06.404Z,14.28
2023-04-07T09:00:06.430Z,14.30
2023-04-07T09:01:06.488Z,14.27
2023-04-07T09:02:06.394Z,14.27
2023-04-07T09:03:06.645Z,14.28
2023-04-07T09:04:06.376Z,14.26
2023-04-07T09:05:06.388Z,14.25
2023-04-07T09:06:06.373Z,14.30
2023-04-07T09:07:06.365Z,14.31
2023-04-07T09:08:06.356Z,14.26
2023-04-07T09:09:06.334Z,14.25
2023-04-07T09:10:06.340Z,14.29
2023-04-07T09:11:06.319Z,14.28
2023-04-07T09:12:06.317Z,14.28
2023-04-07T09:13:06.336Z,14.31
2023-04-07T09:14:06.298Z,14.34
2023-04-07T09:15:06.322Z,14.28
2023-04-07T09:16:06.309Z,14.29
2023-04-07T09:17:06.278Z,14.29
2023-04-07T09:18:06.308Z,14.29
2023-04-07T09:19:06.257Z,14.32
2023-04-07T09:20:06.277Z,14.32
2023-04-07T09:21:06.243Z,14.36
2023-04-07T09:22:06.258Z,14.26
2023-04-07T09:23:06.244Z,14.27
2023-04-07T09:24:06.272Z,14.31
2023-04-07T09:25:06.309Z,14.27
2023-04-07T09:26:06.348Z,14.29
2023-04-07T09:27:06.400Z,14.29
2023-04-07T09:28:06.435Z,14.27
2023-04-07T09:29:06.453Z,14.31
2023-04-07T09:30:06.511Z,14.29
2023-04-07T09:31:06.545Z,14.27
2023-04-07T09:32:06.595Z,14.27
2023-04-07T09:33:06.687Z,14.27
2023-04-07T09:34:06.667Z,14.31
2023-04-07T09:35:06.692Z,14.27
2023-04-07T09:36:06.757Z,14.29
2023-04-07T09:37:06.748Z,14.27
2023-04-07T09:38:06.813Z,14.32
2023-04-07T09:39:06.841Z,14.29
2023-04-07T09:40:06.904Z,14.31
2023-04-07T09:41:06.986Z,14.32
2023-04-07T09:42:07.015Z,14.29
2023-04-07T09:43:07.017Z,14.34
2023-04-07T09:44:07.041Z,14.26
2023-04-07T09:45:07.106Z,14.27
2023-04-07T09:46:07.189Z,14.31
2023-04-07T09:47:07.162Z,14.24
2023-04-07T09:48:07.215Z,14.29
2023-04-07T09:49:07.267Z,14.31
2023-04-07T09:50:07.379Z,14.31
2023-04-07T09:51:07.398Z,14.27
2023-04-07T09:52:07.387Z,14.29
2023-04-07T09:53:07.418Z,14.24
2023-04-07T09:54:07.480Z,14.27
2023-04-07T09:55:07.518Z,14.26
2023-04-07T09:56:07.579Z,14.27
2023-04-07T09:57:07.648Z,14.32
2023-04-07T09:58:07.683Z,14.29
2023-04-07T09:59:07.720Z,14.27
2023-04-07T10:00:07.768Z,14.24
2023-04-07T10:01:07.816Z,14.26
2023-04-07T10:02:07.973Z,14.27
2023-04-07T10:03:08.000Z,14.29
2023-04-07T10:04:07.992Z,14.29
2023-04-07T10:05:07.985Z,14.33
2023-04-07T10:06:08.033Z,14.31
2023-04-07T10:07:08.059Z,14.27
2023-04-07T10:08:08.123Z,14.26
2023-04-07T10:09:08.153Z,14.33
2023-04-07T10:10:08.194Z,14.26
2023-04-07T10:11:08.259Z,14.31
2023-04-07T10:12:08.285Z,14.30
2023-04-07T10:13:08.337Z,14.29
2023-04-07T10:14:08.390Z,14.26
2023-04-07T10:15:08.440Z,14.29
2023-04-07T10:16:08.493Z,14.32
2023-04-07T10:17:08.525Z,14.33
2023-04-07T10:18:08.577Z,14.30
2023-04-07T10:19:08.614Z,14.40
2023-04-07T10:20:08.676Z,14.37
2023-04-07T10:21:08.725Z,14.33
2023-04-07T10:22:08.764Z,14.35
2023-04-07T10:23:08.797Z,14.37
2023-04-07T10:24:08.855Z,14.38
2023-04-07T10:25:08.905Z,14.38
2023-04-07T10:26:08.940Z,14.36
2023-04-07T10:27:08.994Z,14.39
2023-04-07T10:28:09.029Z,14.39
2023-04-07T10:29:09.095Z,14.35
2023-04-07T10:30:09.124Z,14.36
2023-04-07T10:31:09.234Z,14.36
2023-04-07T10:32:09.207Z,14.33
2023-04-07T10:33:09.270Z,14.37
2023-04-07T10:34:09.313Z,14.37
2023-04-07T10:35:09.387Z,14.35
2023-04-07T10:36:09.491Z,14.32
2023-04-07T10:37:09.439Z,14.33
2023-04-07T10:38:09.511Z,14.38
2023-04-07T10:39:09.543Z,14.32
2023-04-07T10:40:09.613Z,14.41
2023-04-07T10:41:09.643Z,14.30
2023-04-07T10:42:09.666Z,14.37
2023-04-07T10:43:09.786Z,14.27
2023-04-07T10:44:09.778Z,14.31
2023-04-07T10:45:09.826Z,14.35
2023-04-07T10:46:09.896Z,14.33
2023-04-07T10:47:09.894Z,14.37
2023-04-07T10:48:09.962Z,14.32
2023-04-07T10:49:10.008Z,14.39
2023-04-07T10:50:10.039Z,14.37
2023-04-07T10:51:10.078Z,14.38
2023-04-07T10:52:10.123Z,14.35
2023-04-07T10:53:10.180Z,14.35
2023-04-07T10:54:10.202Z,14.38
2023-04-07T10:55:10.260Z,14.36
2023-04-07T10:56:10.329Z,14.32
2023-04-07T10:57:10.332Z,14.38
2023-04-07T10:58:10.378Z,14.35
2023-04-07T10:59:10.442Z,14.35
2023-04-07T11:00:10.494Z,14.30
2023-04-07T11:01:10.557Z,14.35
2023-04-07T11:02:10.642Z,14.32
2023-04-07T11:03:10.683Z,14.38
2023-04-07T11:04:10.682Z,14.35
2023-04-07T11:05:10.665Z,14.32
2023-04-07T11:06:10.716Z,14.32
2023-04-07T11:07:10.764Z,14.33
2023-04-07T11:08:10.834Z,14.34
2023-04-07T11:09:10.871Z,14.31
2023-04-07T11:10:10.894Z,14.32
2023-04-07T11:11:10.943Z,14.29
2023-04-07T11:12:10.992Z,14.31
2023-04-07T11:13:11.034Z,14.27
2023-04-07T11:14:11.083Z,14.28
2023-04-07T11:15:11.110Z,14.25
2023-04-07T11:16:11.213Z,14.22
2023-04-07T11:17:11.134Z,14.17
2023-04-07T11:18:11.167Z,14.21
2023-04-07T11:19:11.230Z,14.11
2023-04-07T11:20:11.201Z,14.20
2023-04-07T11:21:11.214Z,14.18
2023-04-07T11:22:16.296Z,14.12
2023-04-07T11:23:12.229Z,14.19
2023-04-07T11:24:11.214Z,14.25
2023-04-07T11:25:11.193Z,14.27
2023-04-07T11:26:11.200Z,14.27
2023-04-07T11:27:11.186Z,14.31
2023-04-07T11:28:11.185Z,14.36
2023-04-07T11:29:11.166Z,14.33
2023-04-07T11:30:11.160Z,14.34
2023-04-07T11:31:11.185Z,14.33
2023-04-07T11:32:11.147Z,14.33
2023-04-07T11:33:11.136Z,14.32
2023-04-07T11:34:11.151Z,14.29
2023-04-07T11:35:11.123Z,14.43
2023-04-07T11:36:11.132Z,14.37
2023-04-07T11:37:11.162Z,14.39
2023-04-07T11:38:11.167Z,14.39
2023-04-07T11:39:11.221Z,14.42
2023-04-07T11:40:11.267Z,14.43
2023-04-07T11:41:11.310Z,14.43
2023-04-07T11:42:11.353Z,14.43
2023-04-07T11:43:11.400Z,14.43
2023-04-07T11:44:11.447Z,14.43
2023-04-07T11:45:11.461Z,14.47
2023-04-07T11:46:11.590Z,14.48
2023-04-07T11:47:11.591Z,14.43
2023-04-07T11:48:11.682Z,14.46
2023-04-07T11:49:11.642Z,14.45
2023-04-07T11:50:13.771Z,14.49
2023-04-07T11:51:11.944Z,14.48
2023-04-07T11:52:12.003Z,14.45
2023-04-07T11:53:12.033Z,14.51
2023-04-07T11:54:12.095Z,14.46
2023-04-07T11:55:12.137Z,14.48
2023-04-07T11:56:12.189Z,14.43
2023-04-07T11:57:12.218Z,14.45
2023-04-07T11:58:12.254Z,14.48
2023-04-07T11:59:12.298Z,14.49
2023-04-07T12:00:12.344Z,14.51
2023-04-07T12:01:12.393Z,14.43
2023-04-07T12:02:12.513Z,14.47
2023-04-07T12:03:12.650Z,14.49
2023-04-07T12:04:12.692Z,14.46
2023-04-07T12:05:12.588Z,14.49
2023-04-07T12:06:12.609Z,14.44
2023-04-07T12:07:12.634Z,14.49
2023-04-07T12:08:12.678Z,14.46
2023-04-07T12:09:12.813Z,14.47
2023-04-07T12:10:12.759Z,14.43
2023-04-07T12:11:12.810Z,14.49
2023-04-07T12:12:12.838Z,14.43
2023-04-07T12:13:12.885Z,14.47
2023-04-07T12:14:12.926Z,14.38
2023-04-07T12:15:12.975Z,14.38
2023-04-07T12:16:13.044Z,14.38
2023-04-07T12:17:13.048Z,14.40
2023-04-07T12:18:13.089Z,14.41
2023-04-07T12:19:13.137Z,14.40
2023-04-07T12:20:13.196Z,14.40
2023-04-07T12:21:13.235Z,14.37
2023-04-07T12:22:13.252Z,14.48
2023-04-07T12:23:13.292Z,14.46
2023-04-07T12:24:13.349Z,14.41
2023-04-07T12:25:13.395Z,14.38
2023-04-07T12:26:13.445Z,14.40
2023-04-07T12:27:13.482Z,14.38
2023-04-07T12:28:13.540Z,14.37
2023-04-07T12:29:13.579Z,14.40
2023-04-07T12:30:13.701Z,14.43
2023-04-07T12:31:13.665Z,14.40
2023-04-07T12:32:13.785Z,14.38
2023-04-07T12:33:13.756Z,14.32
2023-04-07T12:34:13.796Z,14.32
2023-04-07T12:35:13.837Z,14.32
2023-04-07T12:36:13.933Z,14.33
2023-04-07T12:37:13.937Z,14.33
2023-04-07T12:38:13.981Z,14.32
2023-04-07T12:39:14.013Z,14.35
2023-04-07T12:40:14.052Z,14.35
2023-04-07T12:41:14.109Z,14.37
2023-04-07T12:42:14.155Z,14.33
2023-04-07T12:43:14.181Z,14.34
2023-04-07T12:44:14.238Z,14.35
2023-04-07T12:45:14.263Z,14.31
2023-04-07T12:46:14.332Z,14.29
2023-04-07T12:47:14.373Z,14.31
2023-04-07T12:48:14.396Z,14.32
2023-04-07T12:49:14.443Z,14.27
2023-04-07T12:50:14.475Z,14.31
2023-04-07T12:51:14.536Z,14.35
2023-04-07T12:52:14.576Z,14.37
2023-04-07T12:53:14.607Z,14.31